sensor_id;sensor_type;location;lat;lon;timestamp;temperature;humidity
10384;DHT22;5238;43.508;4.980;2023-02-21T00:02:42;11.70;91.30
10384;DHT22;5238;43.508;4.980;2023-02-21T00:05:28;11.70;91.30
10384;DHT22;5238;43.508;4.980;2023-02-21T00:08:13;11.80;91.30
10384;DHT22;5238;43.508;4.980;2023-02-21T00:10:59;11.80;91.30
10384;DHT22;5238;43.508;4.980;2023-02-21T00:13:44;11.90;91.30
10384;DHT22;5238;43.508;4.980;2023-02-21T00:16:30;11.90;91.30
10384;DHT22;5238;43.508;4.980;2023-02-21T00:19:23;12.00;91.30
10384;DHT22;5238;43.508;4.980;2023-02-21T00:22:07;12.00;91.30
10384;DHT22;5238;43.508;4.980;2023-02-21T00:24:53;12.00;91.30
10384;DHT22;5238;43.508;4.980;2023-02-21T00:27:54;12.00;91.30
10384;DHT22;5238;43.508;4.980;2023-02-21T00:30:39;12.00;91.30
10384;DHT22;5238;43.508;4.980;2023-02-21T00:33:25;12.00;91.30
10384;DHT22;5238;43.508;4.980;2023-02-21T00:36:16;12.00;91.30
10384;DHT22;5238;43.508;4.980;2023-02-21T00:39:10;11.90;91.30
10384;DHT22;5238;43.508;4.980;2023-02-21T00:41:55;11.90;91.30
10384;DHT22;5238;43.508;4.980;2023-02-21T00:44:49;11.90;91.30
10384;DHT22;5238;43.508;4.980;2023-02-21T00:47:34;11.90;91.30
10384;DHT22;5238;43.508;4.980;2023-02-21T00:50:18;12.00;91.30
10384;DHT22;5238;43.508;4.980;2023-02-21T00:53:03;12.00;91.30
10384;DHT22;5238;43.508;4.980;2023-02-21T00:55:48;12.00;91.30
10384;DHT22;5238;43.508;4.980;2023-02-21T00:58:33;12.00;91.30
10384;DHT22;5238;43.508;4.980;2023-02-21T01:01:23;12.00;91.30
10384;DHT22;5238;43.508;4.980;2023-02-21T01:04:08;12.00;91.30
10384;DHT22;5238;43.508;4.980;2023-02-21T01:06:56;12.00;91.30
10384;DHT22;5238;43.508;4.980;2023-02-21T01:09:42;12.00;91.30
10384;DHT22;5238;43.508;4.980;2023-02-21T01:12:26;12.00;91.30
10384;DHT22;5238;43.508;4.980;2023-02-21T01:15:11;12.00;91.30
10384;DHT22;5238;43.508;4.980;2023-02-21T01:18:13;12.00;91.30
10384;DHT22;5238;43.508;4.980;2023-02-21T01:20:58;12.00;91.30
10384;DHT22;5238;43.508;4.980;2023-02-21T01:24:09;12.00;91.30
10384;DHT22;5238;43.508;4.980;2023-02-21T01:26:55;12.00;91.30
10384;DHT22;5238;43.508;4.980;2023-02-21T01:29:48;11.90;91.30
10384;DHT22;5238;43.508;4.980;2023-02-21T01:32:39;12.00;91.30
10384;DHT22;5238;43.508;4.980;2023-02-21T01:35:43;11.90;91.30
10384;DHT22;5238;43.508;4.980;2023-02-21T01:38:27;11.90;91.30
10384;DHT22;5238;43.508;4.980;2023-02-21T01:41:12;11.90;91.30
10384;DHT22;5238;43.508;4.980;2023-02-21T01:44:01;11.90;91.30
10384;DHT22;5238;43.508;4.980;2023-02-21T01:46:47;11.90;91.30
10384;DHT22;5238;43.508;4.980;2023-02-21T01:49:34;11.90;91.30
10384;DHT22;5238;43.508;4.980;2023-02-21T01:52:37;11.90;91.30
10384;DHT22;5238;43.508;4.980;2023-02-21T01:55:21;12.00;91.30
10384;DHT22;5238;43.508;4.980;2023-02-21T01:58:07;12.00;91.30
10384;DHT22;5238;43.508;4.980;2023-02-21T02:00:54;12.00;91.30
10384;DHT22;5238;43.508;4.980;2023-02-21T02:03:39;12.00;91.30
10384;DHT22;5238;43.508;4.980;2023-02-21T02:06:26;12.00;91.30
10384;DHT22;5238;43.508;4.980;2023-02-21T02:09:31;12.00;91.30
10384;DHT22;5238;43.508;4.980;2023-02-21T02:12:30;12.00;91.30
10384;DHT22;5238;43.508;4.980;2023-02-21T02:15:16;12.10;91.30
10384;DHT22;5238;43.508;4.980;2023-02-21T02:18:10;12.10;91.30
10384;DHT22;5238;43.508;4.980;2023-02-21T02:27:24;12.20;91.30
10384;DHT22;5238;43.508;4.980;2023-02-21T02:30:21;12.20;91.30
10384;DHT22;5238;43.508;4.980;2023-02-21T02:38:57;12.30;91.30
10384;DHT22;5238;43.508;4.980;2023-02-21T02:41:36;12.30;91.30
10384;DHT22;5238;43.508;4.980;2023-02-21T02:44:14;12.30;91.30
10384;DHT22;5238;43.508;4.980;2023-02-21T02:47:01;12.40;91.30
10384;DHT22;5238;43.508;4.980;2023-02-21T02:49:44;12.40;91.30
10384;DHT22;5238;43.508;4.980;2023-02-21T02:52:49;12.40;91.30
10384;DHT22;5238;43.508;4.980;2023-02-21T02:55:27;12.40;91.30
10384;DHT22;5238;43.508;4.980;2023-02-21T02:57:59;12.50;91.30
10384;DHT22;5238;43.508;4.980;2023-02-21T03:00:46;12.50;91.30
10384;DHT22;5238;43.508;4.980;2023-02-21T03:03:40;12.50;91.30
10384;DHT22;5238;43.508;4.980;2023-02-21T03:06:26;12.50;91.30
10384;DHT22;5238;43.508;4.980;2023-02-21T03:09:15;12.60;91.30
10384;DHT22;5238;43.508;4.980;2023-02-21T03:11:52;12.60;91.30
10384;DHT22;5238;43.508;4.980;2023-02-21T03:14:36;12.60;91.30
10384;DHT22;5238;43.508;4.980;2023-02-21T03:17:15;12.70;91.30
10384;DHT22;5238;43.508;4.980;2023-02-21T03:19:59;12.70;91.30
10384;DHT22;5238;43.508;4.980;2023-02-21T03:22:34;12.70;91.30
10384;DHT22;5238;43.508;4.980;2023-02-21T03:25:33;12.80;91.30
10384;DHT22;5238;43.508;4.980;2023-02-21T03:28:01;12.80;91.30
10384;DHT22;5238;43.508;4.980;2023-02-21T03:30:36;12.80;91.30
10384;DHT22;5238;43.508;4.980;2023-02-21T03:33:21;12.80;91.30
10384;DHT22;5238;43.508;4.980;2023-02-21T03:36:05;12.90;91.30
10384;DHT22;5238;43.508;4.980;2023-02-21T03:38:39;12.90;91.30
10384;DHT22;5238;43.508;4.980;2023-02-21T03:41:10;12.90;91.30
10384;DHT22;5238;43.508;4.980;2023-02-21T03:43:43;12.90;91.30
10384;DHT22;5238;43.508;4.980;2023-02-21T03:46:27;12.90;91.30
10384;DHT22;5238;43.508;4.980;2023-02-21T03:48:56;12.90;91.30
10384;DHT22;5238;43.508;4.980;2023-02-21T03:51:42;13.00;91.30
10384;DHT22;5238;43.508;4.980;2023-02-21T03:54:17;13.00;91.30
10384;DHT22;5238;43.508;4.980;2023-02-21T03:56:46;13.00;91.30
10384;DHT22;5238;43.508;4.980;2023-02-21T03:59:36;13.00;91.30
10384;DHT22;5238;43.508;4.980;2023-02-21T04:02:21;13.00;91.30
10384;DHT22;5238;43.508;4.980;2023-02-21T04:05:02;13.00;91.30
10384;DHT22;5238;43.508;4.980;2023-02-21T04:07:44;13.00;91.30
10384;DHT22;5238;43.508;4.980;2023-02-21T04:10:25;13.00;91.30
10384;DHT22;5238;43.508;4.980;2023-02-21T04:13:13;13.00;91.30
10384;DHT22;5238;43.508;4.980;2023-02-21T04:15:55;13.00;91.30
10384;DHT22;5238;43.508;4.980;2023-02-21T04:18:30;13.10;91.30
10384;DHT22;5238;43.508;4.980;2023-02-21T04:20:58;13.10;91.30
10384;DHT22;5238;43.508;4.980;2023-02-21T04:23:41;13.10;91.30
10384;DHT22;5238;43.508;4.980;2023-02-21T04:26:14;13.20;91.30
10384;DHT22;5238;43.508;4.980;2023-02-21T04:28:59;13.20;91.30
10384;DHT22;5238;43.508;4.980;2023-02-21T04:31:27;13.20;91.30
10384;DHT22;5238;43.508;4.980;2023-02-21T04:33:57;13.20;91.30
10384;DHT22;5238;43.508;4.980;2023-02-21T04:36:34;13.20;91.30
10384;DHT22;5238;43.508;4.980;2023-02-21T04:39:15;13.20;91.30
10384;DHT22;5238;43.508;4.980;2023-02-21T04:41:56;13.20;91.30
10384;DHT22;5238;43.508;4.980;2023-02-21T04:44:42;13.20;91.30
10384;DHT22;5238;43.508;4.980;2023-02-21T04:47:11;13.20;91.30
10384;DHT22;5238;43.508;4.980;2023-02-21T04:49:52;13.20;91.30
10384;DHT22;5238;43.508;4.980;2023-02-21T04:52:33;13.10;91.30
10384;DHT22;5238;43.508;4.980;2023-02-21T04:55:14;13.10;91.30
10384;DHT22;5238;43.508;4.980;2023-02-21T04:57:56;13.00;91.30
10384;DHT22;5238;43.508;4.980;2023-02-21T05:00:32;13.00;91.30
10384;DHT22;5238;43.508;4.980;2023-02-21T05:03:01;13.00;91.30
10384;DHT22;5238;43.508;4.980;2023-02-21T05:05:42;12.90;91.30
10384;DHT22;5238;43.508;4.980;2023-02-21T05:08:23;12.90;91.30
10384;DHT22;5238;43.508;4.980;2023-02-21T05:11:04;12.90;91.30
10384;DHT22;5238;43.508;4.980;2023-02-21T05:13:33;12.80;91.30
10384;DHT22;5238;43.508;4.980;2023-02-21T05:16:18;12.80;91.30
10384;DHT22;5238;43.508;4.980;2023-02-21T05:18:47;12.80;91.30
10384;DHT22;5238;43.508;4.980;2023-02-21T05:21:28;12.80;91.30
10384;DHT22;5238;43.508;4.980;2023-02-21T05:24:08;12.80;91.30
10384;DHT22;5238;43.508;4.980;2023-02-21T05:26:50;12.70;91.30
10384;DHT22;5238;43.508;4.980;2023-02-21T05:29:22;12.70;91.30
10384;DHT22;5238;43.508;4.980;2023-02-21T05:32:05;12.70;91.30
10384;DHT22;5238;43.508;4.980;2023-02-21T05:34:34;12.70;91.30
10384;DHT22;5238;43.508;4.980;2023-02-21T05:37:03;12.60;91.30
10384;DHT22;5238;43.508;4.980;2023-02-21T05:39:34;12.60;91.30
10384;DHT22;5238;43.508;4.980;2023-02-21T05:42:10;12.60;91.30
10384;DHT22;5238;43.508;4.980;2023-02-21T05:44:37;12.60;91.30
10384;DHT22;5238;43.508;4.980;2023-02-21T05:47:28;12.60;91.30
10384;DHT22;5238;43.508;4.980;2023-02-21T05:49:56;12.60;91.30
10384;DHT22;5238;43.508;4.980;2023-02-21T05:52:23;12.60;91.30
10384;DHT22;5238;43.508;4.980;2023-02-21T05:55:04;12.60;91.30
10384;DHT22;5238;43.508;4.980;2023-02-21T05:57:43;12.50;91.30
10384;DHT22;5238;43.508;4.980;2023-02-21T06:00:15;12.50;91.30
10384;DHT22;5238;43.508;4.980;2023-02-21T06:02:51;12.50;91.30
10384;DHT22;5238;43.508;4.980;2023-02-21T06:05:22;12.40;91.30
10384;DHT22;5238;43.508;4.980;2023-02-21T06:07:50;12.40;91.30
10384;DHT22;5238;43.508;4.980;2023-02-21T06:10:17;12.40;91.30
10384;DHT22;5238;43.508;4.980;2023-02-21T06:12:45;12.40;91.30
10384;DHT22;5238;43.508;4.980;2023-02-21T06:15:12;12.30;91.30
10384;DHT22;5238;43.508;4.980;2023-02-21T06:17:41;12.30;91.30
10384;DHT22;5238;43.508;4.980;2023-02-21T06:20:13;12.30;91.30
10384;DHT22;5238;43.508;4.980;2023-02-21T06:22:41;12.20;91.30
10384;DHT22;5238;43.508;4.980;2023-02-21T06:25:09;12.30;91.30
10384;DHT22;5238;43.508;4.980;2023-02-21T06:27:36;12.20;91.30
10384;DHT22;5238;43.508;4.980;2023-02-21T06:30:04;12.20;91.30
10384;DHT22;5238;43.508;4.980;2023-02-21T06:32:32;12.20;91.30
10384;DHT22;5238;43.508;4.980;2023-02-21T06:35:03;12.30;91.30
10384;DHT22;5238;43.508;4.980;2023-02-21T06:37:41;12.30;91.30
10384;DHT22;5238;43.508;4.980;2023-02-21T06:40:10;12.40;91.30
10384;DHT22;5238;43.508;4.980;2023-02-21T06:42:39;12.40;91.30
10384;DHT22;5238;43.508;4.980;2023-02-21T06:45:07;12.50;91.30
10384;DHT22;5238;43.508;4.980;2023-02-21T06:47:40;12.50;91.30
10384;DHT22;5238;43.508;4.980;2023-02-21T06:50:07;12.50;91.30
10384;DHT22;5238;43.508;4.980;2023-02-21T06:52:34;12.50;91.30
10384;DHT22;5238;43.508;4.980;2023-02-21T06:55:03;12.50;91.30
10384;DHT22;5238;43.508;4.980;2023-02-21T06:57:31;12.60;91.30
10384;DHT22;5238;43.508;4.980;2023-02-21T06:59:58;12.60;91.30
10384;DHT22;5238;43.508;4.980;2023-02-21T07:02:25;12.60;91.30
10384;DHT22;5238;43.508;4.980;2023-02-21T07:04:52;12.60;91.30
10384;DHT22;5238;43.508;4.980;2023-02-21T07:07:20;12.60;91.30
10384;DHT22;5238;43.508;4.980;2023-02-21T07:09:47;12.70;91.30
10384;DHT22;5238;43.508;4.980;2023-02-21T07:14:54;12.70;91.30
10384;DHT22;5238;43.508;4.980;2023-02-21T07:17:21;12.80;91.30
10384;DHT22;5238;43.508;4.980;2023-02-21T07:19:50;12.80;91.30
10384;DHT22;5238;43.508;4.980;2023-02-21T07:22:23;12.80;91.30
10384;DHT22;5238;43.508;4.980;2023-02-21T07:24:51;12.80;91.30
10384;DHT22;5238;43.508;4.980;2023-02-21T07:27:21;12.90;91.30
10384;DHT22;5238;43.508;4.980;2023-02-21T07:29:48;12.90;91.30
10384;DHT22;5238;43.508;4.980;2023-02-21T07:32:19;13.00;91.30
10384;DHT22;5238;43.508;4.980;2023-02-21T07:34:47;13.00;91.30
10384;DHT22;5238;43.508;4.980;2023-02-21T07:37:14;13.00;91.30
10384;DHT22;5238;43.508;4.980;2023-02-21T07:39:41;13.00;91.30
10384;DHT22;5238;43.508;4.980;2023-02-21T07:42:08;13.00;91.30
10384;DHT22;5238;43.508;4.980;2023-02-21T07:44:37;13.10;91.30
10384;DHT22;5238;43.508;4.980;2023-02-21T07:47:04;13.10;91.30
10384;DHT22;5238;43.508;4.980;2023-02-21T07:49:35;13.20;91.30
10384;DHT22;5238;43.508;4.980;2023-02-21T07:52:03;13.20;91.30
10384;DHT22;5238;43.508;4.980;2023-02-21T07:54:33;13.20;91.30
10384;DHT22;5238;43.508;4.980;2023-02-21T07:57:00;13.30;91.30
10384;DHT22;5238;43.508;4.980;2023-02-21T07:59:27;13.30;91.30
10384;DHT22;5238;43.508;4.980;2023-02-21T08:01:57;13.40;91.30
10384;DHT22;5238;43.508;4.980;2023-02-21T08:04:24;13.50;91.30
10384;DHT22;5238;43.508;4.980;2023-02-21T08:06:51;13.50;91.30
10384;DHT22;5238;43.508;4.980;2023-02-21T08:09:18;13.60;91.30
10384;DHT22;5238;43.508;4.980;2023-02-21T08:11:47;13.60;91.30
10384;DHT22;5238;43.508;4.980;2023-02-21T08:14:14;13.70;91.30
10384;DHT22;5238;43.508;4.980;2023-02-21T08:16:42;13.70;91.30
10384;DHT22;5238;43.508;4.980;2023-02-21T08:19:10;13.80;91.30
10384;DHT22;5238;43.508;4.980;2023-02-21T08:21:38;13.90;91.30
10384;DHT22;5238;43.508;4.980;2023-02-21T08:24:23;13.90;91.30
10384;DHT22;5238;43.508;4.980;2023-02-21T08:27:04;14.10;91.30
10384;DHT22;5238;43.508;4.980;2023-02-21T08:29:48;14.30;91.30
10384;DHT22;5238;43.508;4.980;2023-02-21T08:32:17;14.40;91.30
10384;DHT22;5238;43.508;4.980;2023-02-21T08:34:57;14.50;91.30
10384;DHT22;5238;43.508;4.980;2023-02-21T08:37:24;14.70;91.30
10384;DHT22;5238;43.508;4.980;2023-02-21T08:39:58;14.80;91.30
10384;DHT22;5238;43.508;4.980;2023-02-21T08:42:25;14.90;91.30
10384;DHT22;5238;43.508;4.980;2023-02-21T08:44:52;14.90;91.30
10384;DHT22;5238;43.508;4.980;2023-02-21T08:47:20;14.80;91.30
10384;DHT22;5238;43.508;4.980;2023-02-21T08:49:48;14.90;91.30
10384;DHT22;5238;43.508;4.980;2023-02-21T08:52:19;14.90;91.30
10384;DHT22;5238;43.508;4.980;2023-02-21T08:54:47;15.00;91.30
10384;DHT22;5238;43.508;4.980;2023-02-21T08:57:14;15.00;91.30
10384;DHT22;5238;43.508;4.980;2023-02-21T08:59:42;15.10;91.30
10384;DHT22;5238;43.508;4.980;2023-02-21T09:02:14;15.20;91.30
10384;DHT22;5238;43.508;4.980;2023-02-21T09:04:41;15.30;91.30
10384;DHT22;5238;43.508;4.980;2023-02-21T09:07:18;15.50;91.30
10384;DHT22;5238;43.508;4.980;2023-02-21T09:09:46;15.60;91.30
10384;DHT22;5238;43.508;4.980;2023-02-21T09:12:19;15.80;91.30
10384;DHT22;5238;43.508;4.980;2023-02-21T09:14:46;16.20;91.30
10384;DHT22;5238;43.508;4.980;2023-02-21T09:17:13;16.60;91.30
10384;DHT22;5238;43.508;4.980;2023-02-21T09:19:43;16.60;91.30
10384;DHT22;5238;43.508;4.980;2023-02-21T09:22:10;16.70;91.30
10384;DHT22;5238;43.508;4.980;2023-02-21T09:24:37;16.80;91.30
10384;DHT22;5238;43.508;4.980;2023-02-21T09:27:06;16.80;91.30
10384;DHT22;5238;43.508;4.980;2023-02-21T09:29:34;16.90;91.30
10384;DHT22;5238;43.508;4.980;2023-02-21T09:32:02;16.90;91.30
10384;DHT22;5238;43.508;4.980;2023-02-21T09:34:31;16.90;91.30
10384;DHT22;5238;43.508;4.980;2023-02-21T09:37:06;16.90;91.30
10384;DHT22;5238;43.508;4.980;2023-02-21T09:39:46;16.90;91.30
10384;DHT22;5238;43.508;4.980;2023-02-21T09:42:16;16.90;91.30
10384;DHT22;5238;43.508;4.980;2023-02-21T09:44:44;17.00;91.30
10384;DHT22;5238;43.508;4.980;2023-02-21T09:47:14;17.00;91.30
10384;DHT22;5238;43.508;4.980;2023-02-21T09:49:56;17.00;91.30
10384;DHT22;5238;43.508;4.980;2023-02-21T09:52:29;17.10;91.30
10384;DHT22;5238;43.508;4.980;2023-02-21T09:55:04;17.10;91.30
10384;DHT22;5238;43.508;4.980;2023-02-21T09:57:36;17.20;91.30
10384;DHT22;5238;43.508;4.980;2023-02-21T10:00:15;17.20;91.30
10384;DHT22;5238;43.508;4.980;2023-02-21T10:02:51;17.30;91.30
10384;DHT22;5238;43.508;4.980;2023-02-21T10:05:26;17.30;91.30
10384;DHT22;5238;43.508;4.980;2023-02-21T10:08:01;17.30;91.30
10384;DHT22;5238;43.508;4.980;2023-02-21T10:10:37;17.30;91.30
10384;DHT22;5238;43.508;4.980;2023-02-21T10:13:20;17.40;91.30
10384;DHT22;5238;43.508;4.980;2023-02-21T10:15:51;17.30;91.30
10384;DHT22;5238;43.508;4.980;2023-02-21T10:18:30;17.40;91.30
10384;DHT22;5238;43.508;4.980;2023-02-21T10:21:00;17.30;91.30
10384;DHT22;5238;43.508;4.980;2023-02-21T10:23:34;17.30;91.30
10384;DHT22;5238;43.508;4.980;2023-02-21T10:26:04;17.30;91.30
10384;DHT22;5238;43.508;4.980;2023-02-21T10:28:36;17.30;91.30
10384;DHT22;5238;43.508;4.980;2023-02-21T10:31:07;17.30;91.30
10384;DHT22;5238;43.508;4.980;2023-02-21T10:33:37;17.30;91.30
10384;DHT22;5238;43.508;4.980;2023-02-21T10:36:10;17.30;91.30
10384;DHT22;5238;43.508;4.980;2023-02-21T10:38:40;17.40;91.30
10384;DHT22;5238;43.508;4.980;2023-02-21T10:41:09;17.60;91.30
10384;DHT22;5238;43.508;4.980;2023-02-21T10:43:43;17.80;91.30
10384;DHT22;5238;43.508;4.980;2023-02-21T10:46:19;17.80;91.30
10384;DHT22;5238;43.508;4.980;2023-02-21T10:48:50;18.10;91.30
10384;DHT22;5238;43.508;4.980;2023-02-21T10:51:29;18.30;91.30
10384;DHT22;5238;43.508;4.980;2023-02-21T10:54:17;18.50;91.30
10384;DHT22;5238;43.508;4.980;2023-02-21T10:56:46;18.60;91.30
10384;DHT22;5238;43.508;4.980;2023-02-21T10:59:21;18.60;91.30
10384;DHT22;5238;43.508;4.980;2023-02-21T11:01:49;18.70;91.30
10384;DHT22;5238;43.508;4.980;2023-02-21T11:04:26;18.80;91.30
10384;DHT22;5238;43.508;4.980;2023-02-21T11:06:56;19.00;91.30
10384;DHT22;5238;43.508;4.980;2023-02-21T11:09:33;19.00;91.30
10384;DHT22;5238;43.508;4.980;2023-02-21T11:12:04;19.10;91.30
10384;DHT22;5238;43.508;4.980;2023-02-21T11:14:34;19.10;91.30
10384;DHT22;5238;43.508;4.980;2023-02-21T11:17:15;19.10;91.30
10384;DHT22;5238;43.508;4.980;2023-02-21T11:19:45;19.20;91.30
10384;DHT22;5238;43.508;4.980;2023-02-21T11:22:14;19.30;91.30
10384;DHT22;5238;43.508;4.980;2023-02-21T11:24:58;19.40;91.30
10384;DHT22;5238;43.508;4.980;2023-02-21T11:27:29;19.40;91.30
10384;DHT22;5238;43.508;4.980;2023-02-21T11:29:59;19.30;91.30
10384;DHT22;5238;43.508;4.980;2023-02-21T11:32:30;19.30;91.30
10384;DHT22;5238;43.508;4.980;2023-02-21T11:35:06;19.20;91.30
10384;DHT22;5238;43.508;4.980;2023-02-21T11:37:47;19.10;91.30
10384;DHT22;5238;43.508;4.980;2023-02-21T11:40:22;19.10;91.30
10384;DHT22;5238;43.508;4.980;2023-02-21T11:42:50;18.90;91.30
10384;DHT22;5238;43.508;4.980;2023-02-21T11:45:26;18.70;91.30
10384;DHT22;5238;43.508;4.980;2023-02-21T11:48:01;18.60;91.30
10384;DHT22;5238;43.508;4.980;2023-02-21T11:50:36;18.50;91.30
10384;DHT22;5238;43.508;4.980;2023-02-21T11:53:09;18.40;91.30
10384;DHT22;5238;43.508;4.980;2023-02-21T11:55:53;18.30;91.30
10384;DHT22;5238;43.508;4.980;2023-02-21T11:58:25;18.20;91.30
10384;DHT22;5238;43.508;4.980;2023-02-21T12:01:00;18.20;91.30
10384;DHT22;5238;43.508;4.980;2023-02-21T12:06:34;18.30;91.30
10384;DHT22;5238;43.508;4.980;2023-02-21T12:09:06;18.30;91.30
10384;DHT22;5238;43.508;4.980;2023-02-21T12:11:46;18.30;91.30
10384;DHT22;5238;43.508;4.980;2023-02-21T12:20:41;18.30;91.30
10384;DHT22;5238;43.508;4.980;2023-02-21T12:23:17;18.30;91.30
10384;DHT22;5238;43.508;4.980;2023-02-21T12:26:05;18.30;91.30
10384;DHT22;5238;43.508;4.980;2023-02-21T12:28:49;18.30;91.30
10384;DHT22;5238;43.508;4.980;2023-02-21T12:31:38;18.30;91.30
10384;DHT22;5238;43.508;4.980;2023-02-21T12:34:19;18.30;91.30
10384;DHT22;5238;43.508;4.980;2023-02-21T12:37:04;18.30;91.30
10384;DHT22;5238;43.508;4.980;2023-02-21T12:39:53;18.30;91.30
10384;DHT22;5238;43.508;4.980;2023-02-21T12:42:36;18.30;91.30
10384;DHT22;5238;43.508;4.980;2023-02-21T12:45:19;18.20;91.30
10384;DHT22;5238;43.508;4.980;2023-02-21T12:47:54;18.20;91.30
10384;DHT22;5238;43.508;4.980;2023-02-21T12:50:28;18.20;91.30
10384;DHT22;5238;43.508;4.980;2023-02-21T12:52:59;18.20;91.30
10384;DHT22;5238;43.508;4.980;2023-02-21T12:55:32;18.20;91.30
10384;DHT22;5238;43.508;4.980;2023-02-21T12:58:09;18.20;91.30
10384;DHT22;5238;43.508;4.980;2023-02-21T13:00:40;18.20;91.30
10384;DHT22;5238;43.508;4.980;2023-02-21T13:03:28;18.20;91.30
10384;DHT22;5238;43.508;4.980;2023-02-21T13:06:01;18.20;91.30
10384;DHT22;5238;43.508;4.980;2023-02-21T13:08:38;18.20;91.30
10384;DHT22;5238;43.508;4.980;2023-02-21T13:11:11;18.20;91.30
10384;DHT22;5238;43.508;4.980;2023-02-21T13:13:43;18.20;91.30
10384;DHT22;5238;43.508;4.980;2023-02-21T13:16:11;18.20;91.30
10384;DHT22;5238;43.508;4.980;2023-02-21T13:18:43;18.00;91.30
10384;DHT22;5238;43.508;4.980;2023-02-21T13:21:22;18.00;91.30
10384;DHT22;5238;43.508;4.980;2023-02-21T13:26:49;17.90;91.30
10384;DHT22;5238;43.508;4.980;2023-02-21T13:29:23;17.80;91.30
10384;DHT22;5238;43.508;4.980;2023-02-21T13:31:58;17.70;91.30
10384;DHT22;5238;43.508;4.980;2023-02-21T13:34:29;17.60;91.30
10384;DHT22;5238;43.508;4.980;2023-02-21T13:37:02;17.60;91.30
10384;DHT22;5238;43.508;4.980;2023-02-21T13:39:32;17.60;91.30
10384;DHT22;5238;43.508;4.980;2023-02-21T13:42:04;17.50;91.30
10384;DHT22;5238;43.508;4.980;2023-02-21T13:44:34;17.50;91.30
10384;DHT22;5238;43.508;4.980;2023-02-21T13:47:09;17.60;91.30
10384;DHT22;5238;43.508;4.980;2023-02-21T13:49:56;17.50;91.30
10384;DHT22;5238;43.508;4.980;2023-02-21T13:52:35;17.50;91.30
10384;DHT22;5238;43.508;4.980;2023-02-21T13:55:23;17.50;91.30
10384;DHT22;5238;43.508;4.980;2023-02-21T13:58:22;17.50;91.30
10384;DHT22;5238;43.508;4.980;2023-02-21T14:00:55;17.50;91.30
10384;DHT22;5238;43.508;4.980;2023-02-21T14:03:31;17.50;91.30
10384;DHT22;5238;43.508;4.980;2023-02-21T14:06:24;17.50;91.30
10384;DHT22;5238;43.508;4.980;2023-02-21T14:08:57;17.50;91.30
10384;DHT22;5238;43.508;4.980;2023-02-21T14:11:46;17.40;91.30
10384;DHT22;5238;43.508;4.980;2023-02-21T14:14:22;17.40;91.30
10384;DHT22;5238;43.508;4.980;2023-02-21T14:16:52;17.50;91.30
10384;DHT22;5238;43.508;4.980;2023-02-21T14:19:26;17.40;91.30
10384;DHT22;5238;43.508;4.980;2023-02-21T14:22:08;17.40;91.30
10384;DHT22;5238;43.508;4.980;2023-02-21T14:24:40;17.40;91.30
10384;DHT22;5238;43.508;4.980;2023-02-21T14:27:37;17.30;91.30
10384;DHT22;5238;43.508;4.980;2023-02-21T14:30:23;17.30;91.30
10384;DHT22;5238;43.508;4.980;2023-02-21T14:32:51;17.30;91.30
10384;DHT22;5238;43.508;4.980;2023-02-21T14:35:27;17.30;91.30
10384;DHT22;5238;43.508;4.980;2023-02-21T14:37:59;17.30;91.30
10384;DHT22;5238;43.508;4.980;2023-02-21T14:40:35;17.30;91.30
10384;DHT22;5238;43.508;4.980;2023-02-21T14:43:31;17.40;91.30
10384;DHT22;5238;43.508;4.980;2023-02-21T14:46:19;17.40;91.30
10384;DHT22;5238;43.508;4.980;2023-02-21T14:49:24;17.50;91.30
10384;DHT22;5238;43.508;4.980;2023-02-21T14:52:41;17.60;91.30
10384;DHT22;5238;43.508;4.980;2023-02-21T14:55:32;17.60;91.30
10384;DHT22;5238;43.508;4.980;2023-02-21T15:01:12;17.60;91.30
10384;DHT22;5238;43.508;4.980;2023-02-21T15:03:45;17.70;91.30
10384;DHT22;5238;43.508;4.980;2023-02-21T15:06:18;17.70;91.30
10384;DHT22;5238;43.508;4.980;2023-02-21T15:08:48;17.70;91.30
10384;DHT22;5238;43.508;4.980;2023-02-21T15:11:24;17.70;91.30
10384;DHT22;5238;43.508;4.980;2023-02-21T15:14:14;17.70;91.30
10384;DHT22;5238;43.508;4.980;2023-02-21T15:16:48;17.70;91.30
10384;DHT22;5238;43.508;4.980;2023-02-21T15:19:25;17.70;91.30
10384;DHT22;5238;43.508;4.980;2023-02-21T15:22:21;17.70;91.30
10384;DHT22;5238;43.508;4.980;2023-02-21T15:25:17;17.70;91.30
10384;DHT22;5238;43.508;4.980;2023-02-21T15:28:13;17.70;91.30
10384;DHT22;5238;43.508;4.980;2023-02-21T15:30:57;17.60;91.30
10384;DHT22;5238;43.508;4.980;2023-02-21T15:33:25;17.60;91.30
10384;DHT22;5238;43.508;4.980;2023-02-21T15:35:56;17.50;91.30
10384;DHT22;5238;43.508;4.980;2023-02-21T15:38:28;17.50;91.30
10384;DHT22;5238;43.508;4.980;2023-02-21T15:41:00;17.40;91.30
10384;DHT22;5238;43.508;4.980;2023-02-21T15:43:35;17.30;91.30
10384;DHT22;5238;43.508;4.980;2023-02-21T15:46:13;17.30;91.30
10384;DHT22;5238;43.508;4.980;2023-02-21T15:48:41;17.20;91.30
10384;DHT22;5238;43.508;4.980;2023-02-21T15:51:09;17.10;91.30
10384;DHT22;5238;43.508;4.980;2023-02-21T15:53:37;17.10;91.30
10384;DHT22;5238;43.508;4.980;2023-02-21T15:56:19;17.00;91.30
10384;DHT22;5238;43.508;4.980;2023-02-21T15:59:10;16.90;91.30
10384;DHT22;5238;43.508;4.980;2023-02-21T16:01:38;16.90;91.30
10384;DHT22;5238;43.508;4.980;2023-02-21T16:04:19;16.80;91.30
10384;DHT22;5238;43.508;4.980;2023-02-21T16:06:50;16.70;91.30
10384;DHT22;5238;43.508;4.980;2023-02-21T16:09:24;16.60;91.30
10384;DHT22;5238;43.508;4.980;2023-02-21T16:11:55;16.50;91.30
10384;DHT22;5238;43.508;4.980;2023-02-21T16:14:33;16.40;91.30
10384;DHT22;5238;43.508;4.980;2023-02-21T16:17:07;16.30;91.30
10384;DHT22;5238;43.508;4.980;2023-02-21T16:19:35;16.30;91.30
10384;DHT22;5238;43.508;4.980;2023-02-21T16:22:25;16.30;91.30
10384;DHT22;5238;43.508;4.980;2023-02-21T16:25:15;16.20;91.30
10384;DHT22;5238;43.508;4.980;2023-02-21T16:27:45;16.20;91.30
10384;DHT22;5238;43.508;4.980;2023-02-21T16:30:19;16.10;91.30
10384;DHT22;5238;43.508;4.980;2023-02-21T16:32:49;16.10;91.30
10384;DHT22;5238;43.508;4.980;2023-02-21T16:35:19;16.00;91.30
10384;DHT22;5238;43.508;4.980;2023-02-21T16:37:51;16.00;91.30
10384;DHT22;5238;43.508;4.980;2023-02-21T16:40:27;15.90;91.30
10384;DHT22;5238;43.508;4.980;2023-02-21T16:42:55;15.90;91.30
10384;DHT22;5238;43.508;4.980;2023-02-21T16:45:24;15.80;91.30
10384;DHT22;5238;43.508;4.980;2023-02-21T16:47:55;15.80;91.30
10384;DHT22;5238;43.508;4.980;2023-02-21T16:50:27;15.80;91.30
10384;DHT22;5238;43.508;4.980;2023-02-21T16:52:55;15.80;91.30
10384;DHT22;5238;43.508;4.980;2023-02-21T16:55:22;15.70;91.30
10384;DHT22;5238;43.508;4.980;2023-02-21T16:57:51;15.70;91.30
10384;DHT22;5238;43.508;4.980;2023-02-21T17:00:20;15.60;91.30
10384;DHT22;5238;43.508;4.980;2023-02-21T17:02:49;15.60;91.30
10384;DHT22;5238;43.508;4.980;2023-02-21T17:05:19;15.50;91.30
10384;DHT22;5238;43.508;4.980;2023-02-21T17:07:46;15.50;91.30
10384;DHT22;5238;43.508;4.980;2023-02-21T17:10:15;15.50;91.30
10384;DHT22;5238;43.508;4.980;2023-02-21T17:12:42;15.40;91.30
10384;DHT22;5238;43.508;4.980;2023-02-21T17:15:09;15.40;91.30
10384;DHT22;5238;43.508;4.980;2023-02-21T17:17:37;15.40;91.30